Time;durP1;ratioP1;P1;durP2;ratioP2;P2;SDS_P1;SDS_P2;PMS_P1;PMS_P2;Temp;Humidity;BMP_temperature;BMP_pressure;BME280_temperature;BME280_humidity;BME280_pressure;Samples;Min_cycle;Max_cycle;Signal;HPM_P1;HPM_P2
2023/10/11 00:00:33;;;;;;;0.40;0.40;;;;;;;15.98;55.38;97168.38;29395;224;63009;-56
2023/10/11 00:01:04;;;;;;;0.40;0.40;;;;;;;15.99;55.22;97170.00;29395;201;63004;-57
2023/10/11 00:01:35;;;;;;;0.50;0.50;;;;;;;15.99;55.17;97164.53;29395;213;63008;-57
2023/10/11 00:02:07;;;;;;;0.43;0.43;;;;;;;15.99;55.32;97170.00;29395;202;63005;-57
2023/10/11 00:02:38;;;;;;;0.45;0.45;;;;;;;16.01;55.29;97170.50;29395;259;63009;-56
2023/10/11 00:03:16;;;;;;;0.40;0.40;;;;;;;16.02;55.23;97166.63;29395;207;63005;-57
2023/10/11 00:03:53;;;;;;;0.40;0.40;;;;;;;16.04;54.86;97171.78;29394;206;64013;-56
2023/10/11 00:04:25;;;;;;;0.40;0.40;;;;;;;16.05;55.03;97174.19;29395;278;63005;-56
2023/10/11 00:04:57;;;;;;;0.50;0.50;;;;;;;16.07;55.00;97163.72;29395;228;63009;-57
2023/10/11 00:05:35;;;;;;;0.40;0.40;;;;;;;16.08;54.93;97168.09;29395;198;63005;-57
2023/10/11 00:06:11;;;;;;;0.50;0.50;;;;;;;16.08;54.98;97164.53;29395;214;63026;-57
2023/10/11 00:06:42;;;;;;;0.50;0.50;;;;;;;16.08;54.96;97168.09;29395;215;63004;-56
2023/10/11 00:07:18;;;;;;;0.50;0.50;;;;;;;16.10;55.03;97165.03;29395;209;63009;-56
2023/10/11 00:07:51;;;;;;;0.40;0.40;;;;;;;16.10;55.15;97162.28;29395;206;63015;-55
2023/10/11 00:08:25;;;;;;;0.40;0.40;;;;;;;16.11;54.91;97163.91;29395;198;63009;-57
2023/10/11 00:08:57;;;;;;;0.40;0.40;;;;;;;16.12;54.86;97167.44;29394;206;64008;-54
2023/10/11 00:09:38;;;;;;;0.40;0.40;;;;;;;16.12;54.97;97162.78;29395;206;63009;-56
2023/10/11 00:10:13;;;;;;;0.40;0.40;;;;;;;16.12;55.22;97160.03;29395;221;63005;-69
2023/10/11 00:10:54;;;;;;;0.47;0.47;;;;;;;16.12;54.57;97161.97;29395;231;63017;-55
2023/10/11 00:11:27;;;;;;;0.50;0.50;;;;;;;16.12;55.18;97167.44;29395;211;63005;-56
2023/10/11 00:11:58;;;;;;;0.40;0.40;;;;;;;16.10;55.49;97156.81;29395;220;63009;-56
2023/10/11 00:12:31;;;;;;;0.45;0.45;;;;;;;16.12;55.51;97167.44;29395;238;63005;-56
2023/10/11 00:13:04;;;;;;;0.50;0.50;;;;;;;16.11;55.14;97158.44;29395;206;63009;-57
2023/10/11 00:13:40;;;;;;;0.40;0.40;;;;;;;16.12;55.38;97164.72;29394;279;64009;-68
2023/10/11 00:14:13;;;;;;;0.50;0.50;;;;;;;16.12;55.34;97164.72;29394;202;64013;-58
2023/10/11 00:14:46;;;;;;;0.50;0.50;;;;;;;16.11;55.31;97165.84;29395;227;63004;-56
2023/10/11 00:15:17;;;;;;;0.43;0.43;;;;;;;16.11;55.79;97163.09;29394;237;64013;-57
2023/10/11 00:15:50;;;;;;;0.50;0.50;;;;;;;16.08;55.59;97168.09;29395;203;63004;-57
2023/10/11 00:16:22;;;;;;;0.40;0.40;;;;;;;16.08;55.44;97167.28;29395;202;63008;-57
2023/10/11 00:16:54;;;;;;;0.40;0.40;;;;;;;16.07;55.59;97171.94;29395;211;63005;-57
2023/10/11 00:17:25;;;;;;;0.45;0.45;;;;;;;16.06;55.34;97170.34;29395;214;63022;-57
2023/10/11 00:17:56;;;;;;;0.40;0.40;;;;;;;16.05;55.49;97168.72;29395;202;63005;-57
2023/10/11 00:18:30;;;;;;;0.40;0.40;;;;;;;16.07;55.41;97165.66;29395;289;63009;-56
2023/10/11 00:19:04;;;;;;;0.50;0.50;;;;;;;16.07;55.47;97166.47;29395;216;63011;-56
2023/10/11 00:19:39;;;;;;;0.40;0.40;;;;;;;16.08;55.47;97167.28;29395;202;63009;-57
2023/10/11 00:20:28;;;;;;;0.50;0.50;;;;;;;16.06;55.29;97170.34;29394;236;64009;-56
2023/10/11 00:21:02;;;;;;;0.40;0.40;;;;;;;16.04;55.82;97167.13;29395;198;63009;-57
2023/10/11 00:21:42;;;;;;;0.40;0.40;;;;;;;16.02;56.02;97172.09;29395;362;63004;-57
2023/10/11 00:22:14;;;;;;;0.50;0.50;;;;;;;16.00;56.14;97171.63;29395;307;63009;-57
2023/10/11 00:22:45;;;;;;;0.40;0.40;;;;;;;15.97;56.47;97172.25;29395;199;63004;-56
2023/10/11 00:23:21;;;;;;;0.50;0.50;;;;;;;15.97;56.23;97165.97;29395;240;63009;-57
2023/10/11 00:23:53;;;;;;;0.50;0.50;;;;;;;15.96;56.16;97164.38;29395;290;63009;-70
2023/10/11 00:24:24;;;;;;;0.50;0.50;;;;;;;15.97;55.78;97176.91;29394;216;64014;-57
2023/10/11 00:24:56;;;;;;;0.40;0.40;;;;;;;15.94;56.16;97172.87;29395;232;63005;-57
2023/10/11 00:25:27;;;;;;;0.40;0.40;;;;;;;15.94;56.09;97161.94;29395;271;63009;-55
2023/10/11 00:26:00;;;;;;;0.40;0.40;;;;;;;15.94;56.25;97166.66;29395;240;63005;-56
2023/10/11 00:26:31;;;;;;;0.47;0.47;;;;;;;15.94;55.92;97169.38;29395;199;63009;-57
2023/10/11 00:27:04;;;;;;;0.40;0.40;;;;;;;15.93;56.33;97171.31;29395;344;63005;-56
2023/10/11 00:27:36;;;;;;;0.40;0.40;;;;;;;15.92;56.18;97164.22;29395;203;63009;-57
2023/10/11 00:28:08;;;;;;;0.40;0.40;;;;;;;15.93;56.36;97165.03;29395;218;63004;-56
2023/10/11 00:28:40;;;;;;;0.40;0.40;;;;;;;15.93;56.25;97162.28;29395;266;63009;-57
2023/10/11 00:29:13;;;;;;;0.40;0.40;;;;;;;15.92;56.20;97169.69;29395;229;63004;-56
2023/10/11 00:29:44;;;;;;;0.40;0.40;;;;;;;15.91;56.32;97168.09;29394;226;64013;-56
2023/10/11 00:30:17;;;;;;;0.40;0.40;;;;;;;15.89;56.38;97166.78;29395;239;63004;-57
2023/10/11 00:30:51;;;;;;;0.50;0.50;;;;;;;15.90;56.20;97166.47;29395;272;63008;-57
2023/10/11 00:31:22;;;;;;;0.40;0.40;;;;;;;15.91;56.48;97167.28;29395;216;63004;-57
2023/10/11 00:31:54;;;;;;;0.43;0.43;;;;;;;15.91;56.29;97162.62;29395;334;63008;-56
2023/10/11 00:32:25;;;;;;;0.40;0.40;;;;;;;15.91;56.65;97164.53;29395;211;63005;-57
2023/10/11 00:32:57;;;;;;;0.50;0.50;;;;;;;15.90;56.48;97163.75;29395;223;63021;-57
2023/10/11 00:33:32;;;;;;;0.40;0.40;;;;;;;15.90;56.40;97166.47;29395;213;63005;-56
2023/10/11 00:34:10;;;;;;;0.40;0.40;;;;;;;15.90;57.01;97166.47;29395;235;63009;-56
2023/10/11 00:34:41;;;;;;;0.40;0.40;;;;;;;15.88;57.18;97163.25;29395;224;63005;-57
2023/10/11 00:35:18;;;;;;;0.40;0.40;;;;;;;15.88;56.93;97166.00;29394;203;64013;-57
2023/10/11 00:35:51;;;;;;;0.40;0.40;;;;;;;15.89;56.69;97164.88;29395;215;63004;-58
2023/10/11 00:36:29;;;;;;;0.40;0.40;;;;;;;15.90;56.48;97169.22;29395;247;63009;-56
2023/10/11 00:37:00;;;;;;;0.40;0.40;;;;;;;15.90;56.86;97166.47;29395;343;63004;-68
2023/10/11 00:37:31;;;;;;;0.40;0.40;;;;;;;15.91;56.67;97161.81;29395;209;63009;-57
2023/10/11 00:38:05;;;;;;;0.50;0.50;;;;;;;15.91;56.81;97162.62;29395;238;63004;-57
2023/10/11 00:38:43;;;;;;;0.40;0.40;;;;;;;15.93;56.66;97167.78;29395;237;63008;-56
2023/10/11 00:39:16;;;;;;;0.47;0.47;;;;;;;15.92;56.97;97164.22;29395;223;63005;-56
2023/10/11 00:39:47;;;;;;;0.50;0.50;;;;;;;15.93;56.73;97160.38;29395;238;63009;-56
2023/10/11 00:40:32;;;;;;;0.50;0.50;;;;;;;15.94;56.73;97156.47;29394;216;64009;-57
2023/10/11 00:41:12;;;;;;;0.40;0.40;;;;;;;15.93;56.41;97163.09;29395;229;63009;-57
2023/10/11 00:41:47;;;;;;;0.43;0.43;;;;;;;15.92;56.54;97158.75;29395;219;63005;-57
2023/10/11 00:42:19;;;;;;;0.50;0.50;;;;;;;15.91;56.71;97159.88;29395;293;63009;-57
2023/10/11 00:42:50;;;;;;;0.40;0.40;;;;;;;15.92;56.88;97156.00;29394;216;64004;-56
2023/10/11 00:43:41;;;;;;;0.50;0.50;;;;;;;15.93;56.76;97152.16;29395;373;63022;-70
2023/10/11 00:44:16;;;;;;;0.50;0.50;;;;;;;15.94;57.22;97161.94;29377;238;125013;-57
2023/10/11 00:44:48;;;;;;;0.50;0.50;;;;;;;15.93;56.99;97157.63;29373;228;63012;-57
2023/10/11 00:45:23;;;;;;;0.50;0.50;;;;;;;15.93;57.05;97154.88;29395;216;63000;-56
2023/10/11 00:45:54;;;;;;;0.40;0.40;;;;;;;15.95;57.29;97165.50;29394;197;64013;-57
2023/10/11 00:46:50;;;;;;;0.40;0.40;;;;;;;15.96;56.94;97159.69;29395;222;63001;-57
2023/10/11 00:47:24;;;;;;;0.40;0.40;;;;;;;15.98;56.70;97165.66;29395;222;63026;-56
2023/10/11 00:47:56;;;;;;;0.50;0.50;;;;;;;15.96;56.84;97159.69;29395;214;63013;-57
2023/10/11 00:48:30;;;;;;;0.50;0.50;;;;;;;15.96;56.82;97162.44;29395;332;63016;-56
2023/10/11 00:49:13;;;;;;;0.40;0.40;;;;;;;15.95;56.94;97155.34;29395;197;63005;-56
2023/10/11 00:49:45;;;;;;;0.50;0.50;;;;;;;15.94;57.20;97161.16;29395;250;63009;-55
2023/10/11 00:50:18;;;;;;;0.40;0.40;;;;;;;15.93;56.83;97160.38;29395;339;63014;-69
2023/10/11 00:50:49;;;;;;;0.50;0.50;;;;;;;15.92;57.36;97158.75;29394;202;64009;-58
2023/10/11 00:51:29;;;;;;;0.50;0.50;;;;;;;15.92;57.29;97157.94;29394;270;64009;-57
2023/10/11 00:52:04;;;;;;;0.50;0.50;;;;;;;15.92;57.27;97158.75;29395;364;63013;-57
2023/10/11 00:52:37;;;;;;;0.40;0.40;;;;;;;15.92;57.70;97164.22;29395;197;63014;-57
2023/10/11 00:53:10;;;;;;;0.50;0.50;;;;;;;15.91;57.35;97157.13;29395;223;63008;-57
2023/10/11 00:53:41;;;;;;;0.40;0.40;;;;;;;15.90;57.16;97155.53;29395;211;63004;-56
2023/10/11 00:54:15;;;;;;;0.50;0.50;;;;;;;15.91;57.58;97157.13;29395;203;63009;-56
2023/10/11 00:54:47;;;;;;;0.40;0.40;;;;;;;15.89;57.21;97153.91;29395;209;63016;-57
2023/10/11 00:55:18;;;;;;;0.50;0.50;;;;;;;15.88;57.60;97151.50;29395;253;63009;-71
2023/10/11 00:55:50;;;;;;;0.43;0.43;;;;;;;15.88;57.91;97148.75;29395;245;63005;-56
2023/10/11 00:56:21;;;;;;;0.50;0.50;;;;;;;15.86;57.94;97151.00;29395;229;63009;-57
2023/10/11 00:56:54;;;;;;;0.50;0.50;;;;;;;15.86;57.81;97159.22;29394;302;64009;-55
2023/10/11 00:57:27;;;;;;;0.50;0.50;;;;;;;15.84;57.59;97150.53;29395;209;63009;-56
2023/10/11 00:57:59;;;;;;;0.50;0.50;;;;;;;15.82;57.34;97153.59;29395;372;63004;-57
2023/10/11 00:58:32;;;;;;;0.40;0.40;;;;;;;15.82;57.60;97148.09;29395;198;63009;-58
2023/10/11 00:59:08;;;;;;;0.50;0.50;;;;;;;15.85;57.99;97157.59;29395;260;63004;-56
2023/10/11 00:59:40;;;;;;;0.50;0.50;;;;;;;15.85;57.58;97158.41;29395;202;63009;-57
2023/10/11 01:00:15;;;;;;;0.50;0.50;;;;;;;15.83;57.93;97159.84;29395;205;63000;-57
2023/10/11 01:00:49;;;;;;;0.47;0.47;;;;;;;15.81;58.41;97157.44;29395;309;63008;-57
2023/10/11 01:01:22;;;;;;;0.40;0.40;;;;;;;15.79;59.32;97159.69;29395;270;63005;-57
2023/10/11 01:01:55;;;;;;;0.50;0.50;;;;;;;15.77;58.62;97156.47;29394;301;64014;-57
2023/10/11 01:02:27;;;;;;;0.47;0.47;;;;;;;15.77;58.42;97161.12;29395;202;63017;-57
2023/10/11 01:02:58;;;;;;;0.40;0.40;;;;;;;15.76;58.28;97160.31;29395;237;63009;-57
2023/10/11 01:03:34;;;;;;;0.43;0.43;;;;;;;15.75;58.37;97155.97;29395;199;63005;-56
2023/10/11 01:04:06;;;;;;;0.40;0.40;;;;;;;15.72;58.93;97154.69;29395;209;63027;-57
2023/10/11 01:04:39;;;;;;;0.40;0.40;;;;;;;15.72;58.70;97164.81;29394;218;64009;-56
2023/10/11 01:05:11;;;;;;;0.40;0.40;;;;;;;15.73;58.74;97158.22;29395;209;63009;-58
2023/10/11 01:05:44;;;;;;;0.40;0.40;;;;;;;15.71;58.91;97158.53;29395;215;63004;-57
2023/10/11 01:06:17;;;;;;;0.40;0.40;;;;;;;15.71;58.53;97163.22;29395;199;63009;-57
2023/10/11 01:06:48;;;;;;;0.40;0.40;;;;;;;15.72;58.32;97164.81;29395;202;63004;-57
2023/10/11 01:07:20;;;;;;;0.43;0.43;;;;;;;15.70;58.56;97161.59;29395;206;63009;-57
2023/10/11 01:07:53;;;;;;;0.40;0.40;;;;;;;15.69;58.50;97154.50;29395;206;63004;-57
2023/10/11 01:08:26;;;;;;;0.40;0.40;;;;;;;15.69;58.59;97160.00;29395;215;63008;-57
2023/10/11 01:08:57;;;;;;;0.40;0.40;;;;;;;15.68;58.71;97152.91;29395;197;63005;-56
2023/10/11 01:09:29;;;;;;;0.40;0.40;;;;;;;15.68;58.81;97161.09;29395;225;63009;-56
2023/10/11 01:10:00;;;;;;;0.40;0.40;;;;;;;15.67;59.39;97162.22;29394;217;63996;-57
2023/10/11 01:10:31;;;;;;;0.40;0.40;;;;;;;15.66;60.18;97163.34;29395;208;63009;-57
2023/10/11 01:11:04;;;;;;;0.40;0.40;;;;;;;15.65;59.64;97164.47;29395;265;63005;-56
2023/10/11 01:11:35;;;;;;;0.45;0.45;;;;;;;15.65;59.40;97159.00;29395;218;63009;-57
2023/10/11 01:12:06;;;;;;;0.40;0.40;;;;;;;15.65;59.10;97159.00;29395;197;63007;-68
2023/10/11 01:12:41;;;;;;;0.40;0.40;;;;;;;15.66;59.33;97160.63;29395;203;63009;-57
2023/10/11 01:13:15;;;;;;;0.40;0.40;;;;;;;15.66;59.31;97157.87;29395;204;63004;-57
2023/10/11 01:13:52;;;;;;;0.50;0.50;;;;;;;15.65;59.64;97159.81;29395;221;63009;-56
2023/10/11 01:14:23;;;;;;;0.50;0.50;;;;;;;15.66;59.51;97166.09;29395;370;63004;-56
2023/10/11 01:14:57;;;;;;;0.40;0.40;;;;;;;15.66;59.78;97161.44;29395;347;63009;-56
2023/10/11 01:15:29;;;;;;;0.40;0.40;;;;;;;15.66;59.86;97164.16;29394;201;64009;-57
2023/10/11 01:16:09;;;;;;;0.40;0.40;;;;;;;15.65;59.26;97162.56;29395;216;63008;-57
2023/10/11 01:16:41;;;;;;;0.40;0.40;;;;;;;15.64;59.72;97154.66;29439;273;125005;-57
2023/10/11 01:17:13;;;;;;;0.40;0.40;;;;;;;15.64;60.21;97165.59;29373;286;63013;-58
2023/10/11 01:17:44;;;;;;;0.40;0.40;;;;;;;15.64;60.16;97162.88;29395;203;63005;-57
2023/10/11 01:18:15;;;;;;;0.40;0.40;;;;;;;15.63;59.70;97161.25;29395;332;63009;-56
2023/10/11 01:18:46;;;;;;;0.40;0.40;;;;;;;15.63;59.98;97155.78;29395;291;63005;-58
2023/10/11 01:19:18;;;;;;;0.40;0.40;;;;;;;15.63;60.03;97155.78;29395;241;63009;-67
2023/10/11 01:19:53;;;;;;;0.40;0.40;;;;;;;15.63;60.00;97161.25;29395;220;63005;-57
2023/10/11 01:20:26;;;;;;;0.43;0.43;;;;;;;15.63;59.89;97158.53;29395;214;63009;-56
2023/10/11 01:21:01;;;;;;;0.45;0.45;;;;;;;15.64;60.21;97157.41;29394;202;64009;-57
2023/10/11 01:21:33;;;;;;;0.50;0.50;;;;;;;15.63;60.14;97151.13;29395;220;63009;-57
2023/10/11 01:22:04;;;;;;;0.40;0.40;;;;;;;15.63;60.17;97148.38;29395;268;63004;-57
2023/10/11 01:22:35;;;;;;;0.47;0.47;;;;;;;15.64;60.18;97147.25;29394;217;64013;-57
2023/10/11 01:23:07;;;;;;;0.50;0.50;;;;;;;15.66;60.15;97149.69;29395;272;63008;-56
2023/10/11 01:23:38;;;;;;;0.40;0.40;;;;;;;15.65;60.07;97148.88;29395;202;63008;-57
2023/10/11 01:24:10;;;;;;;0.40;0.40;;;;;;;15.64;60.54;97158.22;29395;197;63005;-57
2023/10/11 01:24:41;;;;;;;0.40;0.40;;;;;;;15.61;59.97;97147.09;29395;205;63009;-57
2023/10/11 01:25:18;;;;;;;0.50;0.50;;;;;;;15.60;60.15;97148.22;29395;205;63009;-56
2023/10/11 01:25:49;;;;;;;0.50;0.50;;;;;;;15.60;60.25;97145.47;29395;292;63009;-57
2023/10/11 01:26:21;;;;;;;0.50;0.50;;;;;;;15.60;60.42;97154.50;29395;208;63005;-56
2023/10/11 01:26:53;;;;;;;0.50;0.50;;;;;;;15.61;60.69;97144.34;29395;294;63009;-56
2023/10/11 01:27:30;;;;;;;0.40;0.40;;;;;;;15.61;60.50;97152.56;29395;255;63005;-57
2023/10/11 01:28:01;;;;;;;0.50;0.50;;;;;;;15.59;60.05;97143.91;29394;199;64013;-57
2023/10/11 01:28:34;;;;;;;0.50;0.50;;;;;;;15.58;60.41;97142.28;29395;204;63004;-56
2023/10/11 01:29:05;;;;;;;0.40;0.40;;;;;;;15.59;60.53;97143.91;29395;292;63009;-56
2023/10/11 01:29:37;;;;;;;0.50;0.50;;;;;;;15.59;60.71;97138.44;29395;263;63004;-57
2023/10/11 01:30:10;;;;;;;0.40;0.40;;;;;;;15.60;60.84;97140.00;29395;202;63008;-57
2023/10/11 01:30:41;;;;;;;0.45;0.45;;;;;;;15.59;60.87;97138.44;29395;224;63004;-57
2023/10/11 01:31:16;;;;;;;0.50;0.50;;;;;;;15.58;60.37;97136.81;29395;251;63008;-57
2023/10/11 01:31:48;;;;;;;0.50;0.50;;;;;;;15.58;60.67;97142.28;29395;197;63005;-67
2023/10/11 01:32:19;;;;;;;0.40;0.40;;;;;;;15.57;61.25;97151.63;29395;202;63009;-56
2023/10/11 01:32:54;;;;;;;0.45;0.45;;;;;;;15.55;61.12;97140.16;29395;208;63005;-56
2023/10/11 01:33:25;;;;;;;0.40;0.40;;;;;;;15.54;61.00;97141.28;29394;208;64013;-56
2023/10/11 01:33:58;;;;;;;0.40;0.40;;;;;;;15.54;61.13;97138.53;29395;226;63005;-57
2023/10/11 01:34:30;;;;;;;0.40;0.40;;;;;;;15.53;60.74;97139.66;29395;207;63009;-57
2023/10/11 01:35:04;;;;;;;0.50;0.50;;;;;;;15.54;61.12;97139.34;29395;302;63004;-58
2023/10/11 01:35:38;;;;;;;0.40;0.40;;;;;;;15.55;60.89;97137.41;29395;264;63009;-56
2023/10/11 01:36:12;;;;;;;0.40;0.40;;;;;;;15.53;61.34;97148.69;29395;209;63010;-57
2023/10/11 01:36:46;;;;;;;0.47;0.47;;;;;;;15.53;61.07;97150.59;29395;203;63022;-56
2023/10/11 01:37:18;;;;;;;0.40;0.40;;;;;;;15.52;60.81;97147.06;29395;204;63004;-57
2023/10/11 01:37:55;;;;;;;0.40;0.40;;;;;;;15.52;61.00;97138.06;29395;250;63008;-57
2023/10/11 01:38:26;;;;;;;0.50;0.50;;;;;;;15.51;60.78;97139.19;29394;280;64009;-56
2023/10/11 01:39:06;;;;;;;0.40;0.40;;;;;;;15.49;61.08;97147.69;29395;288;63009;-56
2023/10/11 01:39:37;;;;;;;0.40;0.40;;;;;;;15.49;61.41;97144.16;29395;214;63005;-57
2023/10/11 01:40:23;;;;;;;0.40;0.40;;;;;;;15.49;61.31;97139.50;29395;199;63027;-56
2023/10/11 01:40:55;;;;;;;0.40;0.40;;;;;;;15.50;61.46;97151.25;29395;271;63005;-56
2023/10/11 01:41:27;;;;;;;0.40;0.40;;;;;;;15.48;61.34;97148.81;29395;265;63009;-56
2023/10/11 01:42:01;;;;;;;0.40;0.40;;;;;;;15.47;61.67;97144.47;29395;322;63005;-55
2023/10/11 01:42:36;;;;;;;0.40;0.40;;;;;;;15.46;61.20;97145.59;29395;315;63009;-57
2023/10/11 01:43:07;;;;;;;0.47;0.47;;;;;;;15.47;61.88;97141.75;29395;228;63004;-56
2023/10/11 01:43:38;;;;;;;0.50;0.50;;;;;;;15.47;61.82;97144.47;29394;232;64013;-57
2023/10/11 01:44:09;;;;;;;0.50;0.50;;;;;;;15.47;62.12;97146.41;29395;244;63004;-57
2023/10/11 01:44:41;;;;;;;0.40;0.40;;;;;;;15.47;61.69;97140.94;29394;272;64013;-57
2023/10/11 01:45:12;;;;;;;0.40;0.40;;;;;;;15.48;61.67;97142.53;29395;206;63004;-56
2023/10/11 01:45:44;;;;;;;0.50;0.50;;;;;;;15.47;61.85;97141.75;29395;205;63026;-57
2023/10/11 01:46:18;;;;;;;0.40;0.40;;;;;;;15.48;61.52;97142.53;29395;217;63005;-56
2023/10/11 01:46:50;;;;;;;0.40;0.40;;;;;;;15.48;61.51;97139.81;29395;226;63009;-56
2023/10/11 01:47:21;;;;;;;0.50;0.50;;;;;;;15.49;61.90;97139.50;29395;226;63005;-57
2023/10/11 01:47:56;;;;;;;0.50;0.50;;;;;;;15.51;61.97;97141.91;29395;222;63009;-56
2023/10/11 01:48:27;;;;;;;0.50;0.50;;;;;;;15.52;61.94;97143.53;29395;216;63011;-58
2023/10/11 01:49:01;;;;;;;0.40;0.40;;;;;;;15.52;61.79;97138.06;29395;216;63009;-56
2023/10/11 01:49:39;;;;;;;0.40;0.40;;;;;;;15.51;61.87;97144.66;29395;209;63005;-57
2023/10/11 01:50:10;;;;;;;0.50;0.50;;;;;;;15.52;61.83;97141.59;29394;220;64013;-57
2023/10/11 01:50:41;;;;;;;0.40;0.40;;;;;;;15.52;61.90;97133.38;29395;226;63004;-57
2023/10/11 01:51:20;;;;;;;0.50;0.50;;;;;;;15.54;61.77;97141.28;29395;260;63009;-57
2023/10/11 01:51:52;;;;;;;0.50;0.50;;;;;;;15.54;61.55;97141.28;29395;204;63004;-57
2023/10/11 01:52:25;;;;;;;0.50;0.50;;;;;;;15.54;62.19;97142.09;29395;226;63009;-57
2023/10/11 01:52:56;;;;;;;0.40;0.40;;;;;;;15.54;62.16;97133.88;29395;223;63004;-56
2023/10/11 01:53:28;;;;;;;0.40;0.40;;;;;;;15.55;61.92;97140.16;29395;211;63009;-58
2023/10/11 01:54:00;;;;;;;0.40;0.40;;;;;;;15.55;61.98;97137.41;29394;253;64009;-57
2023/10/11 01:54:32;;;;;;;0.40;0.40;;;;;;;15.54;61.65;97130.34;29395;348;63009;-57
2023/10/11 01:55:10;;;;;;;0.40;0.40;;;;;;;15.55;61.68;97134.69;29394;214;64005;-56
2023/10/11 01:55:41;;;;;;;0.50;0.50;;;;;;;15.55;61.95;97137.41;29395;274;63009;-56
2023/10/11 01:56:13;;;;;;;0.40;0.40;;;;;;;15.57;61.98;97135.22;29395;274;63005;-56
2023/10/11 01:56:47;;;;;;;0.40;0.40;;;;;;;15.58;61.88;97134.09;29395;204;63009;-54
2023/10/11 01:57:19;;;;;;;0.40;0.40;;;;;;;15.59;61.97;97132.97;29395;299;63005;-55
2023/10/11 01:57:50;;;;;;;0.40;0.40;;;;;;;15.59;61.77;97136.50;29395;203;63025;-55
2023/10/11 01:58:21;;;;;;;0.40;0.40;;;;;;;15.58;61.62;97132.16;29395;210;63004;-55
2023/10/11 01:58:56;;;;;;;0.50;0.50;;;;;;;15.59;62.09;97143.91;29395;306;63009;-56
2023/10/11 01:59:28;;;;;;;0.45;0.45;;;;;;;15.59;62.07;97139.22;29394;310;64009;-55
2023/10/11 01:59:59;;;;;;;0.40;0.40;;;;;;;15.60;61.71;97145.47;29395;213;63009;-56
2023/10/11 02:00:33;;;;;;;0.50;0.50;;;;;;;15.59;62.25;97138.44;29395;221;63004;-56
2023/10/11 02:01:05;;;;;;;0.50;0.50;;;;;;;15.60;61.96;97134.53;29395;203;63017;-55
2023/10/11 02:01:39;;;;;;;0.50;0.50;;;;;;;15.60;62.48;97129.88;29395;242;63012;-55
2023/10/11 02:02:10;;;;;;;0.50;0.50;;;;;;;15.61;61.87;97133.41;29395;300;63009;-56
2023/10/11 02:02:47;;;;;;;0.50;0.50;;;;;;;15.62;62.40;97137.75;29395;208;63005;-56
2023/10/11 02:03:19;;;;;;;0.50;0.50;;;;;;;15.61;61.89;97126.03;29395;232;63009;-55
2023/10/11 02:03:53;;;;;;;0.50;0.50;;;;;;;15.61;62.00;97136.97;29395;218;63005;-57
2023/10/11 02:04:25;;;;;;;0.50;0.50;;;;;;;15.61;61.95;97134.22;29395;216;63025;-57
2023/10/11 02:04:59;;;;;;;0.50;0.50;;;;;;;15.60;62.27;97131.81;29394;224;64009;-55
2023/10/11 02:05:31;;;;;;;0.50;0.50;;;;;;;15.60;62.07;97129.88;29394;221;64013;-55
2023/10/11 02:06:04;;;;;;;0.50;0.50;;;;;;;15.60;62.22;97131.81;29395;266;63016;-55
2023/10/11 02:06:38;;;;;;;0.50;0.50;;;;;;;15.59;62.17;97128.28;29395;356;63024;-68
2023/10/11 02:07:09;;;;;;;0.50;0.50;;;;;;;15.58;62.16;97132.16;29395;327;63004;-57
2023/10/11 02:07:41;;;;;;;1.08;1.08;;;;;;;15.57;62.07;97136.00;29395;197;63008;-56
2023/10/11 02:08:17;;;;;;;0.50;0.50;;;;;;;15.58;62.21;97137.63;29395;306;63004;-57
2023/10/11 02:08:48;;;;;;;0.40;0.40;;;;;;;15.58;62.60;97132.16;29395;228;63009;-57
2023/10/11 02:09:23;;;;;;;0.40;0.40;;;;;;;15.57;62.40;97136.00;29395;203;63005;-68
2023/10/11 02:09:55;;;;;;;0.40;0.40;;;;;;;15.57;62.32;97132.47;29395;250;63009;-56
2023/10/11 02:10:27;;;;;;;0.40;0.40;;;;;;;15.58;62.43;97125.88;29395;198;63005;-57
2023/10/11 02:11:01;;;;;;;0.40;0.40;;;;;;;15.58;62.33;97131.34;29394;275;64013;-56
2023/10/11 02:11:33;;;;;;;0.40;0.40;;;;;;;15.57;62.35;97140.69;29395;208;63019;-67
2023/10/11 02:12:10;;;;;;;0.50;0.50;;;;;;;15.58;62.13;97131.34;29395;333;63016;-56
2023/10/11 02:12:47;;;;;;;0.40;0.40;;;;;;;15.56;62.74;97133.56;29395;213;63004;-56
2023/10/11 02:13:18;;;;;;;0.40;0.40;;;;;;;15.55;62.13;97132.75;29395;206;63009;-66
2023/10/11 02:13:50;;;;;;;0.40;0.40;;;;;;;15.54;62.51;97133.06;29395;296;63000;-57
2023/10/11 02:14:28;;;;;;;0.40;0.40;;;;;;;15.53;62.26;97131.47;29395;196;63009;-55
2023/10/11 02:15:07;;;;;;;0.40;0.40;;;;;;;15.52;62.47;97138.06;29395;342;63004;-58
2023/10/11 02:15:40;;;;;;;0.40;0.40;;;;;;;15.52;62.63;97138.06;29395;288;63008;-57
2023/10/11 02:16:14;;;;;;;0.40;0.40;;;;;;;15.50;62.89;97132.09;29394;320;64009;-57
2023/10/11 02:16:45;;;;;;;0.40;0.40;;;;;;;15.50;62.97;97134.84;29395;249;63026;-57
2023/10/11 02:17:20;;;;;;;0.40;0.40;;;;;;;15.47;62.61;97130.00;29395;248;63007;-57
2023/10/11 02:17:52;;;;;;;0.40;0.40;;;;;;;15.49;62.76;97127.75;29395;219;63009;-56
2023/10/11 02:18:25;;;;;;;0.40;0.40;;;;;;;15.48;63.06;97137.88;29395;210;63005;-57
2023/10/11 02:18:59;;;;;;;0.40;0.40;;;;;;;15.47;62.71;97136.28;29395;348;63009;-56
2023/10/11 02:19:32;;;;;;;0.40;0.40;;;;;;;15.45;62.92;97133.06;29395;293;63005;-55
2023/10/11 02:20:20;;;;;;;0.40;0.40;;;;;;;15.43;62.78;97130.63;29395;243;63009;-56
2023/10/11 02:20:55;;;;;;;0.50;0.50;;;;;;;15.42;63.12;97139.16;29395;279;63004;-56
2023/10/11 02:21:30;;;;;;;0.40;0.40;;;;;;;15.39;62.61;97140.59;29394;348;64013;-57
2023/10/11 02:22:01;;;;;;;0.45;0.45;;;;;;;15.37;63.06;97137.38;29395;286;63004;-56
2023/10/11 02:22:33;;;;;;;0.50;0.50;;;;;;;15.37;63.26;97136.56;29395;330;63015;-57
2023/10/11 02:23:05;;;;;;;0.40;0.40;;;;;;;15.33;63.19;97136.38;29395;363;63013;-57
2023/10/11 02:23:40;;;;;;;0.40;0.40;;;;;;;15.34;63.11;97137.19;29395;281;63009;-56
2023/10/11 02:24:17;;;;;;;0.40;0.40;;;;;;;15.34;63.26;97137.19;29395;235;63005;-55
2023/10/11 02:24:54;;;;;;;0.40;0.40;;;;;;;15.33;63.14;97141.84;29395;206;63009;-56
2023/10/11 02:25:26;;;;;;;0.40;0.40;;;;;;;15.30;63.34;97145.22;29395;213;63005;-57
2023/10/11 02:26:00;;;;;;;0.40;0.40;;;;;;;15.29;63.32;97140.06;29395;304;63014;-56
2023/10/11 02:26:34;;;;;;;0.40;0.40;;;;;;;15.27;63.28;97137.66;29394;266;64009;-56
2023/10/11 02:27:16;;;;;;;0.80;0.80;;;;;;;15.26;63.20;97137.97;29394;273;64013;-56
2023/10/11 02:27:50;;;;;;;0.50;0.50;;;;;;;15.21;63.46;97147.12;29395;315;63004;-57
2023/10/11 02:28:21;;;;;;;0.50;0.50;;;;;;;15.18;64.17;97142.31;29395;203;63009;-57
2023/10/11 02:28:53;;;;;;;0.40;0.40;;;;;;;15.13;63.81;97147.91;29395;237;63004;-56
2023/10/11 02:29:25;;;;;;;0.40;0.40;;;;;;;15.10;64.10;97148.53;29395;243;63009;-57
2023/10/11 02:29:56;;;;;;;0.40;0.40;;;;;;;15.07;64.75;97143.69;29395;202;63004;-57
2023/10/11 02:30:28;;;;;;;0.50;0.50;;;;;;;15.04;64.23;97150.59;29394;235;64013;-58
2023/10/11 02:30:59;;;;;;;0.50;0.50;;;;;;;15.03;65.21;97153.66;29395;262;63004;-56
2023/10/11 02:31:35;;;;;;;0.50;0.50;;;;;;;15.00;65.17;97148.81;29395;254;63009;-57
2023/10/11 02:32:08;;;;;;;0.40;0.40;;;;;;;14.98;65.04;97145.56;29394;265;64009;-56
2023/10/11 02:32:43;;;;;;;0.40;0.40;;;;;;;14.97;65.08;97146.69;29395;307;63009;-57
2023/10/11 02:33:14;;;;;;;0.40;0.40;;;;;;;14.97;64.64;97143.97;29395;286;63005;-70
2023/10/11 02:33:51;;;;;;;0.50;0.50;;;;;;;14.96;64.92;97147.81;29395;205;63009;-57
2023/10/11 02:34:23;;;;;;;0.50;0.50;;;;;;;14.96;64.78;97147.81;29395;197;63005;-57
2023/10/11 02:34:54;;;;;;;0.50;0.50;;;;;;;14.95;65.18;97151.66;29394;209;64009;-56
2023/10/11 02:35:31;;;;;;;0.50;0.50;;;;;;;14.93;65.19;97148.44;29395;210;63004;-57
2023/10/11 02:36:09;;;;;;;0.50;0.50;;;;;;;14.91;65.00;97143.28;29394;312;64013;-57
2023/10/11 02:36:45;;;;;;;0.40;0.40;;;;;;;14.90;65.13;97155.34;29395;392;63004;-56
2023/10/11 02:37:16;;;;;;;0.45;0.45;;;;;;;14.88;66.08;97151.34;29395;264;63008;-57
2023/10/11 02:37:48;;;;;;;0.50;0.50;;;;;;;14.85;66.18;97147.31;29395;206;63004;-56
2023/10/11 02:38:22;;;;;;;0.50;0.50;;;;;;;14.87;66.12;97147.81;29395;222;63008;-57
2023/10/11 02:38:57;;;;;;;0.50;0.50;;;;;;;14.88;65.63;97145.88;29395;199;63005;-57
2023/10/11 02:39:31;;;;;;;0.50;0.50;;;;;;;14.87;65.92;97144.25;29395;257;63009;-56
2023/10/11 02:40:08;;;;;;;0.40;0.40;;;;;;;14.87;65.78;97155.19;29395;197;63005;-57